sensor_id;sensor_type;location;lat;lon;timestamp;pressure;altitude;pressure_sealevel;temperature;humidity
63347;BME280;49472;49.880;8.650;2023-02-04T00:01:57;101426.41;;;14.32;nan
63347;BME280;49472;49.880;8.650;2023-02-04T00:04:22;101420.66;;;14.80;nan
63347;BME280;49472;49.880;8.650;2023-02-04T00:06:48;101428.16;;;14.95;nan
63347;BME280;49472;49.880;8.650;2023-02-04T00:09:13;101436.72;;;14.96;nan
63347;BME280;49472;49.880;8.650;2023-02-04T00:11:40;101444.81;;;15.15;nan
63347;BME280;49472;49.880;8.650;2023-02-04T00:14:07;101441.69;;;14.86;nan
63347;BME280;49472;49.880;8.650;2023-02-04T00:16:32;101455.09;;;15.15;nan
63347;BME280;49472;49.880;8.650;2023-02-04T00:18:57;101445.03;;;15.12;nan
63347;BME280;49472;49.880;8.650;2023-02-04T00:21:23;101457.63;;;15.04;nan
63347;BME280;49472;49.880;8.650;2023-02-04T00:23:48;101459.00;;;14.71;nan
63347;BME280;49472;49.880;8.650;2023-02-04T00:26:15;101460.69;;;14.32;nan
63347;BME280;49472;49.880;8.650;2023-02-04T00:28:40;101458.06;;;14.07;nan
63347;BME280;49472;49.880;8.650;2023-02-04T00:31:05;101455.41;;;14.21;nan
63347;BME280;49472;49.880;8.650;2023-02-04T00:33:31;101452.13;;;14.32;nan
63347;BME280;49472;49.880;8.650;2023-02-04T00:35:56;101461.28;;;13.83;nan
63347;BME280;49472;49.880;8.650;2023-02-04T00:38:21;101460.41;;;13.70;nan
63347;BME280;49472;49.880;8.650;2023-02-04T00:40:47;101463.59;;;14.01;nan
63347;BME280;49472;49.880;8.650;2023-02-04T00:43:12;101461.31;;;13.96;nan
63347;BME280;49472;49.880;8.650;2023-02-04T00:45:37;101466.50;;;13.69;nan
63347;BME280;49472;49.880;8.650;2023-02-04T00:48:03;101469.63;;;14.40;nan
63347;BME280;49472;49.880;8.650;2023-02-04T00:50:28;101471.22;;;14.55;nan
63347;BME280;49472;49.880;8.650;2023-02-04T00:52:53;101472.84;;;14.30;nan
63347;BME280;49472;49.880;8.650;2023-02-04T00:55:19;101472.91;;;14.16;nan
63347;BME280;49472;49.880;8.650;2023-02-04T00:57:44;101485.22;;;14.51;nan
63347;BME280;49472;49.880;8.650;2023-02-04T01:00:12;101480.31;;;14.61;nan
63347;BME280;49472;49.880;8.650;2023-02-04T01:02:38;101478.25;;;14.13;nan
63347;BME280;49472;49.880;8.650;2023-02-04T01:05:05;101476.84;;;14.34;nan
63347;BME280;49472;49.880;8.650;2023-02-04T01:07:30;101479.53;;;13.93;nan
63347;BME280;49472;49.880;8.650;2023-02-04T01:09:56;101484.16;;;13.74;nan
63347;BME280;49472;49.880;8.650;2023-02-04T01:12:21;101483.50;;;14.24;nan
63347;BME280;49472;49.880;8.650;2023-02-04T01:14:47;101485.47;;;14.21;nan
63347;BME280;49472;49.880;8.650;2023-02-04T01:17:12;101497.25;;;14.50;nan
63347;BME280;49472;49.880;8.650;2023-02-04T01:19:37;101496.53;;;15.12;nan
63347;BME280;49472;49.880;8.650;2023-02-04T01:22:02;101503.78;;;14.82;nan
63347;BME280;49472;49.880;8.650;2023-02-04T01:24:28;101496.75;;;15.09;nan
63347;BME280;49472;49.880;8.650;2023-02-04T01:26:53;101507.06;;;15.09;nan
63347;BME280;49472;49.880;8.650;2023-02-04T01:29:18;101507.56;;;15.14;nan
63347;BME280;49472;49.880;8.650;2023-02-04T01:31:44;101508.22;;;14.80;nan
63347;BME280;49472;49.880;8.650;2023-02-04T01:34:09;101512.97;;;14.86;nan
63347;BME280;49472;49.880;8.650;2023-02-04T01:36:34;101521.72;;;15.09;nan
63347;BME280;49472;49.880;8.650;2023-02-04T01:38:59;101525.50;;;14.90;nan
63347;BME280;49472;49.880;8.650;2023-02-04T01:41:25;101529.72;;;15.17;nan
63347;BME280;49472;49.880;8.650;2023-02-04T01:43:52;101538.16;;;14.81;nan
63347;BME280;49472;49.880;8.650;2023-02-04T01:46:17;101538.72;;;14.86;nan
63347;BME280;49472;49.880;8.650;2023-02-04T01:48:43;101538.38;;;15.03;nan
63347;BME280;49472;49.880;8.650;2023-02-04T01:51:14;101521.50;;;14.99;nan
63347;BME280;49472;49.880;8.650;2023-02-04T01:53:40;101524.09;;;14.33;nan
63347;BME280;49472;49.880;8.650;2023-02-04T01:56:20;101517.38;;;14.84;nan
63347;BME280;49472;49.880;8.650;2023-02-04T01:58:46;101521.28;;;14.24;nan
63347;BME280;49472;49.880;8.650;2023-02-04T02:01:14;101520.81;;;14.04;nan
63347;BME280;49472;49.880;8.650;2023-02-04T02:03:40;101525.31;;;14.28;nan
63347;BME280;49472;49.880;8.650;2023-02-04T02:06:06;101535.19;;;14.61;nan
63347;BME280;49472;49.880;8.650;2023-02-04T02:08:34;101526.69;;;14.46;nan
63347;BME280;49472;49.880;8.650;2023-02-04T02:11:01;101529.25;;;14.46;nan
63347;BME280;49472;49.880;8.650;2023-02-04T02:13:26;101527.38;;;14.36;nan
63347;BME280;49472;49.880;8.650;2023-02-04T02:15:51;101533.44;;;15.00;nan
63347;BME280;49472;49.880;8.650;2023-02-04T02:18:17;101537.97;;;15.22;nan
63347;BME280;49472;49.880;8.650;2023-02-04T02:20:43;101538.44;;;15.40;nan
63347;BME280;49472;49.880;8.650;2023-02-04T02:23:43;101546.28;;;15.38;nan
63347;BME280;49472;49.880;8.650;2023-02-04T02:26:10;101547.44;;;14.83;nan
63347;BME280;49472;49.880;8.650;2023-02-04T02:28:35;101549.44;;;14.13;nan
63347;BME280;49472;49.880;8.650;2023-02-04T02:31:01;101559.25;;;14.20;nan
63347;BME280;49472;49.880;8.650;2023-02-04T02:33:26;101552.91;;;14.39;nan
63347;BME280;49472;49.880;8.650;2023-02-04T02:35:51;101555.13;;;14.58;nan
63347;BME280;49472;49.880;8.650;2023-02-04T02:38:18;101560.00;;;14.88;nan
63347;BME280;49472;49.880;8.650;2023-02-04T02:40:44;101550.09;;;14.56;nan
63347;BME280;49472;49.880;8.650;2023-02-04T02:43:15;101559.47;;;14.57;nan
63347;BME280;49472;49.880;8.650;2023-02-04T02:45:42;101549.59;;;14.37;nan
63347;BME280;49472;49.880;8.650;2023-02-04T02:48:08;101549.16;;;14.17;nan
63347;BME280;49472;49.880;8.650;2023-02-04T02:50:33;101558.56;;;14.04;nan
63347;BME280;49472;49.880;8.650;2023-02-04T02:52:59;101554.72;;;13.97;nan
63347;BME280;49472;49.880;8.650;2023-02-04T02:55:26;101557.41;;;13.95;nan
63347;BME280;49472;49.880;8.650;2023-02-04T02:57:52;101559.66;;;13.58;nan
63347;BME280;49472;49.880;8.650;2023-02-04T03:00:27;101559.94;;;13.68;nan
63347;BME280;49472;49.880;8.650;2023-02-04T03:05:26;101558.75;;;13.59;nan
63347;BME280;49472;49.880;8.650;2023-02-04T03:07:52;101557.81;;;13.60;nan
63347;BME280;49472;49.880;8.650;2023-02-04T03:10:17;101551.94;;;13.58;nan
63347;BME280;49472;49.880;8.650;2023-02-04T03:12:44;101554.53;;;13.58;nan
63347;BME280;49472;49.880;8.650;2023-02-04T03:15:11;101559.50;;;13.47;nan
63347;BME280;49472;49.880;8.650;2023-02-04T03:17:38;101559.22;;;13.23;nan
63347;BME280;49472;49.880;8.650;2023-02-04T03:20:04;101562.50;;;13.25;nan
63347;BME280;49472;49.880;8.650;2023-02-04T03:22:29;101571.06;;;13.40;nan
63347;BME280;49472;49.880;8.650;2023-02-04T03:24:54;101583.50;;;14.16;nan
63347;BME280;49472;49.880;8.650;2023-02-04T03:27:22;101588.91;;;14.26;nan
63347;BME280;49472;49.880;8.650;2023-02-04T03:29:48;101591.50;;;14.39;nan
63347;BME280;49472;49.880;8.650;2023-02-04T03:32:13;101595.84;;;14.38;nan
63347;BME280;49472;49.880;8.650;2023-02-04T03:34:38;101605.69;;;14.31;nan
63347;BME280;49472;49.880;8.650;2023-02-04T03:37:04;101610.78;;;13.77;nan
63347;BME280;49472;49.880;8.650;2023-02-04T03:39:29;101602.44;;;13.59;nan
63347;BME280;49472;49.880;8.650;2023-02-04T03:41:54;101612.25;;;13.67;nan
63347;BME280;49472;49.880;8.650;2023-02-04T03:44:20;101610.16;;;13.31;nan
63347;BME280;49472;49.880;8.650;2023-02-04T03:46:46;101616.38;;;13.70;nan
63347;BME280;49472;49.880;8.650;2023-02-04T03:49:11;101613.78;;;13.84;nan
63347;BME280;49472;49.880;8.650;2023-02-04T03:51:37;101617.56;;;13.93;nan
63347;BME280;49472;49.880;8.650;2023-02-04T03:54:02;101619.31;;;13.92;nan
63347;BME280;49472;49.880;8.650;2023-02-04T03:56:28;101617.41;;;13.53;nan
63347;BME280;49472;49.880;8.650;2023-02-04T03:58:53;101624.81;;;13.43;nan
63347;BME280;49472;49.880;8.650;2023-02-04T04:01:18;101621.44;;;13.42;nan
63347;BME280;49472;49.880;8.650;2023-02-04T04:03:44;101621.72;;;13.52;nan
63347;BME280;49472;49.880;8.650;2023-02-04T04:06:09;101628.47;;;12.80;nan
63347;BME280;49472;49.880;8.650;2023-02-04T04:08:36;101632.34;;;13.32;nan
63347;BME280;49472;49.880;8.650;2023-02-04T04:11:01;101630.50;;;13.48;nan
63347;BME280;49472;49.880;8.650;2023-02-04T04:13:27;101631.53;;;13.45;nan
63347;BME280;49472;49.880;8.650;2023-02-04T04:15:52;101634.66;;;13.65;nan
63347;BME280;49472;49.880;8.650;2023-02-04T04:18:17;101636.22;;;13.67;nan
63347;BME280;49472;49.880;8.650;2023-02-04T04:20:43;101643.41;;;14.18;nan
63347;BME280;49472;49.880;8.650;2023-02-04T04:23:08;101647.00;;;14.16;nan
63347;BME280;49472;49.880;8.650;2023-02-04T04:25:33;101659.72;;;13.76;nan
63347;BME280;49472;49.880;8.650;2023-02-04T04:27:58;101671.91;;;14.01;nan
63347;BME280;49472;49.880;8.650;2023-02-04T04:30:24;101671.25;;;14.11;nan
63347;BME280;49472;49.880;8.650;2023-02-04T04:32:49;101673.47;;;13.60;nan
63347;BME280;49472;49.880;8.650;2023-02-04T04:35:14;101672.28;;;13.80;nan
63347;BME280;49472;49.880;8.650;2023-02-04T04:37:39;101678.81;;;13.86;nan
63347;BME280;49472;49.880;8.650;2023-02-04T04:40:05;101678.81;;;14.00;nan
63347;BME280;49472;49.880;8.650;2023-02-04T04:42:30;101670.00;;;14.04;nan
63347;BME280;49472;49.880;8.650;2023-02-04T04:44:56;101674.59;;;13.99;nan
63347;BME280;49472;49.880;8.650;2023-02-04T04:47:21;101676.41;;;13.83;nan
63347;BME280;49472;49.880;8.650;2023-02-04T04:49:47;101667.53;;;13.74;nan
63347;BME280;49472;49.880;8.650;2023-02-04T04:52:12;101663.03;;;13.78;nan
63347;BME280;49472;49.880;8.650;2023-02-04T04:54:37;101668.34;;;13.46;nan
63347;BME280;49472;49.880;8.650;2023-02-04T04:57:02;101662.56;;;13.85;nan
63347;BME280;49472;49.880;8.650;2023-02-04T04:59:28;101653.00;;;13.87;nan
63347;BME280;49472;49.880;8.650;2023-02-04T05:01:53;101657.09;;;14.19;nan
63347;BME280;49472;49.880;8.650;2023-02-04T05:04:18;101657.13;;;14.31;nan
63347;BME280;49472;49.880;8.650;2023-02-04T05:06:43;101668.25;;;14.05;nan
63347;BME280;49472;49.880;8.650;2023-02-04T05:09:09;101667.03;;;13.96;nan
63347;BME280;49472;49.880;8.650;2023-02-04T05:11:35;101667.31;;;13.92;nan
63347;BME280;49472;49.880;8.650;2023-02-04T05:14:00;101663.94;;;13.62;nan
63347;BME280;49472;49.880;8.650;2023-02-04T05:16:25;101662.47;;;13.87;nan
63347;BME280;49472;49.880;8.650;2023-02-04T05:18:51;101664.38;;;13.83;nan
63347;BME280;49472;49.880;8.650;2023-02-04T05:21:16;101671.34;;;13.96;nan
63347;BME280;49472;49.880;8.650;2023-02-04T05:23:41;101674.63;;;14.26;nan
63347;BME280;49472;49.880;8.650;2023-02-04T05:26:07;101687.13;;;14.18;nan
63347;BME280;49472;49.880;8.650;2023-02-04T05:28:32;101690.06;;;14.26;nan
63347;BME280;49472;49.880;8.650;2023-02-04T05:30:57;101694.63;;;14.36;nan
63347;BME280;49472;49.880;8.650;2023-02-04T05:33:23;101701.41;;;14.37;nan
63347;BME280;49472;49.880;8.650;2023-02-04T05:35:48;101704.94;;;14.36;nan
63347;BME280;49472;49.880;8.650;2023-02-04T05:38:14;101704.88;;;14.23;nan
63347;BME280;49472;49.880;8.650;2023-02-04T05:40:39;101704.59;;;14.27;nan
63347;BME280;49472;49.880;8.650;2023-02-04T05:43:04;101697.56;;;14.29;nan
63347;BME280;49472;49.880;8.650;2023-02-04T05:45:30;101695.00;;;14.29;nan
63347;BME280;49472;49.880;8.650;2023-02-04T05:47:55;101707.16;;;14.27;nan
63347;BME280;49472;49.880;8.650;2023-02-04T05:50:20;101709.53;;;14.16;nan
63347;BME280;49472;49.880;8.650;2023-02-04T05:52:45;101708.88;;;14.27;nan
63347;BME280;49472;49.880;8.650;2023-02-04T05:55:11;101715.78;;;14.26;nan
63347;BME280;49472;49.880;8.650;2023-02-04T05:57:37;101720.09;;;14.26;nan
63347;BME280;49472;49.880;8.650;2023-02-04T06:00:04;101712.22;;;14.15;nan
63347;BME280;49472;49.880;8.650;2023-02-04T06:02:29;101716.59;;;14.27;nan
63347;BME280;49472;49.880;8.650;2023-02-04T06:04:55;101713.19;;;14.41;nan
63347;BME280;49472;49.880;8.650;2023-02-04T06:07:20;101723.13;;;14.32;nan
63347;BME280;49472;49.880;8.650;2023-02-04T06:09:45;101727.09;;;14.24;nan
63347;BME280;49472;49.880;8.650;2023-02-04T06:12:11;101733.25;;;13.93;nan
63347;BME280;49472;49.880;8.650;2023-02-04T06:14:36;101736.31;;;13.99;nan
63347;BME280;49472;49.880;8.650;2023-02-04T06:17:02;101732.50;;;14.19;nan
63347;BME280;49472;49.880;8.650;2023-02-04T06:19:28;101735.53;;;14.11;nan
63347;BME280;49472;49.880;8.650;2023-02-04T06:21:53;101741.72;;;13.95;nan
63347;BME280;49472;49.880;8.650;2023-02-04T06:24:18;101746.47;;;13.72;nan
63347;BME280;49472;49.880;8.650;2023-02-04T06:26:43;101759.28;;;13.58;nan
63347;BME280;49472;49.880;8.650;2023-02-04T06:29:09;101765.69;;;13.51;nan
63347;BME280;49472;49.880;8.650;2023-02-04T06:31:34;101765.56;;;13.68;nan
63347;BME280;49472;49.880;8.650;2023-02-04T06:34:02;101763.22;;;13.49;nan
63347;BME280;49472;49.880;8.650;2023-02-04T06:36:27;101763.06;;;13.52;nan
63347;BME280;49472;49.880;8.650;2023-02-04T06:38:53;101762.00;;;13.40;nan
63347;BME280;49472;49.880;8.650;2023-02-04T06:41:18;101759.91;;;13.47;nan
63347;BME280;49472;49.880;8.650;2023-02-04T06:43:43;101763.53;;;13.29;nan
63347;BME280;49472;49.880;8.650;2023-02-04T06:46:10;101759.66;;;13.52;nan
63347;BME280;49472;49.880;8.650;2023-02-04T06:48:35;101755.84;;;13.87;nan
63347;BME280;49472;49.880;8.650;2023-02-04T06:51:00;101758.03;;;13.35;nan
63347;BME280;49472;49.880;8.650;2023-02-04T06:53:26;101763.19;;;13.19;nan
63347;BME280;49472;49.880;8.650;2023-02-04T06:55:51;101756.06;;;13.24;nan
63347;BME280;49472;49.880;8.650;2023-02-04T06:58:17;101762.56;;;13.45;nan
63347;BME280;49472;49.880;8.650;2023-02-04T07:00:42;101767.25;;;13.39;nan
63347;BME280;49472;49.880;8.650;2023-02-04T07:03:08;101766.13;;;13.73;nan
63347;BME280;49472;49.880;8.650;2023-02-04T07:05:33;101770.13;;;13.63;nan
63347;BME280;49472;49.880;8.650;2023-02-04T07:07:59;101779.03;;;13.57;nan
63347;BME280;49472;49.880;8.650;2023-02-04T07:10:24;101782.75;;;13.82;nan
63347;BME280;49472;49.880;8.650;2023-02-04T07:12:50;101780.63;;;13.88;nan
63347;BME280;49472;49.880;8.650;2023-02-04T07:15:15;101787.09;;;13.96;nan
63347;BME280;49472;49.880;8.650;2023-02-04T07:17:40;101795.78;;;13.79;nan
63347;BME280;49472;49.880;8.650;2023-02-04T07:20:06;101801.22;;;13.88;nan
63347;BME280;49472;49.880;8.650;2023-02-04T07:22:32;101807.78;;;13.64;nan
63347;BME280;49472;49.880;8.650;2023-02-04T07:24:57;101808.16;;;13.72;nan
63347;BME280;49472;49.880;8.650;2023-02-04T07:27:22;101826.81;;;13.76;nan
63347;BME280;49472;49.880;8.650;2023-02-04T07:29:48;101833.31;;;13.81;nan
63347;BME280;49472;49.880;8.650;2023-02-04T07:32:13;101834.19;;;13.96;nan
63347;BME280;49472;49.880;8.650;2023-02-04T07:34:38;101833.38;;;13.96;nan
63347;BME280;49472;49.880;8.650;2023-02-04T07:37:03;101830.75;;;13.81;nan
63347;BME280;49472;49.880;8.650;2023-02-04T07:39:29;101828.44;;;13.62;nan
63347;BME280;49472;49.880;8.650;2023-02-04T07:41:54;101829.03;;;13.82;nan
63347;BME280;49472;49.880;8.650;2023-02-04T07:44:19;101834.00;;;13.85;nan
63347;BME280;49472;49.880;8.650;2023-02-04T07:46:45;101835.34;;;13.76;nan
63347;BME280;49472;49.880;8.650;2023-02-04T07:49:10;101837.38;;;13.41;nan
63347;BME280;49472;49.880;8.650;2023-02-04T07:51:35;101840.91;;;13.68;nan
63347;BME280;49472;49.880;8.650;2023-02-04T07:54:01;101838.34;;;14.13;nan
63347;BME280;49472;49.880;8.650;2023-02-04T07:56:26;101842.94;;;14.37;nan
63347;BME280;49472;49.880;8.650;2023-02-04T07:58:51;101844.50;;;14.39;nan
63347;BME280;49472;49.880;8.650;2023-02-04T08:01:17;101852.97;;;14.41;nan
63347;BME280;49472;49.880;8.650;2023-02-04T08:03:42;101865.09;;;14.39;nan
63347;BME280;49472;49.880;8.650;2023-02-04T08:06:08;101875.88;;;14.60;nan
63347;BME280;49472;49.880;8.650;2023-02-04T08:08:33;101866.66;;;14.85;nan
63347;BME280;49472;49.880;8.650;2023-02-04T08:10:59;101868.09;;;15.03;nan
63347;BME280;49472;49.880;8.650;2023-02-04T08:13:24;101871.56;;;14.75;nan
63347;BME280;49472;49.880;8.650;2023-02-04T08:15:50;101878.25;;;14.92;nan
63347;BME280;49472;49.880;8.650;2023-02-04T08:18:15;101873.38;;;14.44;nan
63347;BME280;49472;49.880;8.650;2023-02-04T08:20:40;101871.56;;;14.75;nan
63347;BME280;49472;49.880;8.650;2023-02-04T08:23:06;101881.13;;;14.59;nan
63347;BME280;49472;49.880;8.650;2023-02-04T08:25:32;101882.19;;;14.97;nan
63347;BME280;49472;49.880;8.650;2023-02-04T08:27:57;101890.56;;;15.01;nan
63347;BME280;49472;49.880;8.650;2023-02-04T08:30:22;101888.59;;;15.19;nan
63347;BME280;49472;49.880;8.650;2023-02-04T08:32:48;101892.28;;;15.15;nan
63347;BME280;49472;49.880;8.650;2023-02-04T08:35:13;101903.41;;;15.15;nan
63347;BME280;49472;49.880;8.650;2023-02-04T08:37:38;101903.16;;;15.06;nan
63347;BME280;49472;49.880;8.650;2023-02-04T08:40:05;101895.72;;;15.28;nan
63347;BME280;49472;49.880;8.650;2023-02-04T08:42:30;101907.78;;;15.42;nan
63347;BME280;49472;49.880;8.650;2023-02-04T08:44:56;101904.91;;;15.59;nan
63347;BME280;49472;49.880;8.650;2023-02-04T08:47:21;101908.84;;;15.92;nan
63347;BME280;49472;49.880;8.650;2023-02-04T08:49:46;101913.38;;;15.61;nan
63347;BME280;49472;49.880;8.650;2023-02-04T08:52:11;101921.34;;;15.86;nan
63347;BME280;49472;49.880;8.650;2023-02-04T08:54:37;101915.31;;;15.45;nan
63347;BME280;49472;49.880;8.650;2023-02-04T08:57:02;101919.91;;;16.07;nan
63347;BME280;49472;49.880;8.650;2023-02-04T08:59:28;101913.09;;;15.93;nan
63347;BME280;49472;49.880;8.650;2023-02-04T09:01:53;101921.47;;;15.70;nan
63347;BME280;49472;49.880;8.650;2023-02-04T09:04:19;101926.69;;;15.82;nan
63347;BME280;49472;49.880;8.650;2023-02-04T09:06:45;101933.78;;;16.19;nan
63347;BME280;49472;49.880;8.650;2023-02-04T09:09:11;101931.19;;;16.19;nan
63347;BME280;49472;49.880;8.650;2023-02-04T09:11:36;101939.88;;;16.43;nan
63347;BME280;49472;49.880;8.650;2023-02-04T09:14:01;101944.50;;;16.13;nan
63347;BME280;49472;49.880;8.650;2023-02-04T09:16:27;101940.00;;;15.89;nan
63347;BME280;49472;49.880;8.650;2023-02-04T09:18:52;101935.13;;;15.84;nan
63347;BME280;49472;49.880;8.650;2023-02-04T09:21:18;101938.91;;;15.93;nan
63347;BME280;49472;49.880;8.650;2023-02-04T09:23:43;101946.00;;;16.02;nan
63347;BME280;49472;49.880;8.650;2023-02-04T09:26:10;101940.00;;;15.89;nan
63347;BME280;49472;49.880;8.650;2023-02-04T09:28:36;101944.03;;;15.80;nan
63347;BME280;49472;49.880;8.650;2023-02-04T09:31:01;101936.91;;;15.84;nan
63347;BME280;49472;49.880;8.650;2023-02-04T09:33:27;101941.66;;;15.77;nan
63347;BME280;49472;49.880;8.650;2023-02-04T09:35:52;101941.34;;;15.95;nan
63347;BME280;49472;49.880;8.650;2023-02-04T09:38:17;101948.72;;;16.14;nan
63347;BME280;49472;49.880;8.650;2023-02-04T09:40:46;101946.06;;;16.28;nan
63347;BME280;49472;49.880;8.650;2023-02-04T09:43:17;101957.09;;;16.30;nan
63347;BME280;49472;49.880;8.650;2023-02-04T09:45:44;101954.75;;;16.53;nan
63347;BME280;49472;49.880;8.650;2023-02-04T09:48:12;101963.44;;;16.52;nan
63347;BME280;49472;49.880;8.650;2023-02-04T09:50:38;101952.16;;;16.91;nan
63347;BME280;49472;49.880;8.650;2023-02-04T09:53:05;101958.50;;;16.87;nan
63347;BME280;49472;49.880;8.650;2023-02-04T09:55:37;101963.44;;;16.77;nan
63347;BME280;49472;49.880;8.650;2023-02-04T09:58:12;101968.78;;;16.48;nan
63347;BME280;49472;49.880;8.650;2023-02-04T10:00:38;101969.50;;;16.63;nan
63347;BME280;49472;49.880;8.650;2023-02-04T10:03:13;101972.50;;;16.70;nan
63347;BME280;49472;49.880;8.650;2023-02-04T10:05:39;101975.44;;;16.78;nan
63347;BME280;49472;49.880;8.650;2023-02-04T10:08:04;101983.03;;;17.18;nan
63347;BME280;49472;49.880;8.650;2023-02-04T10:10:30;101984.88;;;17.16;nan
63347;BME280;49472;49.880;8.650;2023-02-04T10:13:00;101984.84;;;16.92;nan
63347;BME280;49472;49.880;8.650;2023-02-04T10:15:26;101994.00;;;16.70;nan
63347;BME280;49472;49.880;8.650;2023-02-04T10:17:57;101990.25;;;15.28;nan
63347;BME280;49472;49.880;8.650;2023-02-04T10:20:25;101990.75;;;15.76;nan
63347;BME280;49472;49.880;8.650;2023-02-04T10:22:52;101995.97;;;15.18;nan
63347;BME280;49472;49.880;8.650;2023-02-04T10:25:20;102003.53;;;15.22;nan
63347;BME280;49472;49.880;8.650;2023-02-04T10:27:48;102006.00;;;15.23;nan
63347;BME280;49472;49.880;8.650;2023-02-04T10:30:31;102010.09;;;15.54;nan
63347;BME280;49472;49.880;8.650;2023-02-04T10:33:23;102010.47;;;15.62;nan
63347;BME280;49472;49.880;8.650;2023-02-04T10:35:54;102005.94;;;15.66;nan
63347;BME280;49472;49.880;8.650;2023-02-04T10:38:20;102011.38;;;15.76;nan
63347;BME280;49472;49.880;8.650;2023-02-04T10:40:46;102014.19;;;15.86;nan
63347;BME280;49472;49.880;8.650;2023-02-04T10:43:15;102012.03;;;16.32;nan
63347;BME280;49472;49.880;8.650;2023-02-04T10:45:55;102005.78;;;16.36;nan
63347;BME280;49472;49.880;8.650;2023-02-04T10:48:20;102000.81;;;16.59;nan
63347;BME280;49472;49.880;8.650;2023-02-04T10:50:46;102000.41;;;16.65;nan
63347;BME280;49472;49.880;8.650;2023-02-04T10:53:18;101997.34;;;16.85;nan
63347;BME280;49472;49.880;8.650;2023-02-04T10:56:03;101990.69;;;17.07;nan
63347;BME280;49472;49.880;8.650;2023-02-04T10:58:30;101992.56;;;17.05;nan
63347;BME280;49472;49.880;8.650;2023-02-04T11:00:56;101996.06;;;17.04;nan
63347;BME280;49472;49.880;8.650;2023-02-04T11:03:27;101994.38;;;17.28;nan
63347;BME280;49472;49.880;8.650;2023-02-04T11:05:58;101998.03;;;17.13;nan
63347;BME280;49472;49.880;8.650;2023-02-04T11:11:06;101993.41;;;16.92;nan
63347;BME280;49472;49.880;8.650;2023-02-04T11:13:45;101993.19;;;16.70;nan
63347;BME280;49472;49.880;8.650;2023-02-04T11:16:32;101995.16;;;16.92;nan
63347;BME280;49472;49.880;8.650;2023-02-04T11:19:02;101999.47;;;17.04;nan
63347;BME280;49472;49.880;8.650;2023-02-04T11:29:33;101992.88;;;16.75;nan
63347;BME280;49472;49.880;8.650;2023-02-04T11:32:54;102004.84;;;16.76;nan
63347;BME280;49472;49.880;8.650;2023-02-04T11:34:49;102007.34;;;16.64;nan
63347;BME280;49472;49.880;8.650;2023-02-04T11:39:57;102012.53;;;16.90;nan
63347;BME280;49472;49.880;8.650;2023-02-04T11:42:38;102002.59;;;16.97;nan
63347;BME280;49472;49.880;8.650;2023-02-04T11:45:21;101995.66;;;17.47;nan
63347;BME280;49472;49.880;8.650;2023-02-04T11:47:49;101996.97;;;17.28;nan
63347;BME280;49472;49.880;8.650;2023-02-04T11:50:32;102002.16;;;17.52;nan
63347;BME280;49472;49.880;8.650;2023-02-04T11:52:59;101997.84;;;17.40;nan
63347;BME280;49472;49.880;8.650;2023-02-04T11:55:26;102003.06;;;17.64;nan
63347;BME280;49472;49.880;8.650;2023-02-04T11:57:53;102006.88;;;17.95;nan
63347;BME280;49472;49.880;8.650;2023-02-04T12:00:25;102007.56;;;17.86;nan
63347;BME280;49472;49.880;8.650;2023-02-04T12:03:01;102012.91;;;17.59;nan
63347;BME280;49472;49.880;8.650;2023-02-04T12:13:20;102015.09;;;16.52;nan
63347;BME280;49472;49.880;8.650;2023-02-04T12:16:05;102009.78;;;16.53;nan
63347;BME280;49472;49.880;8.650;2023-02-04T12:18:33;102017.41;;;16.82;nan
63347;BME280;49472;49.880;8.650;2023-02-04T12:20:59;102012.72;;;17.12;nan
63347;BME280;49472;49.880;8.650;2023-02-04T12:23:26;102011.84;;;17.25;nan
63347;BME280;49472;49.880;8.650;2023-02-04T12:25:52;102021.00;;;17.78;nan
63347;BME280;49472;49.880;8.650;2023-02-04T12:28:18;102021.63;;;16.96;nan
63347;BME280;49472;49.880;8.650;2023-02-04T12:30:44;102022.22;;;17.86;nan
63347;BME280;49472;49.880;8.650;2023-02-04T12:33:09;102015.94;;;17.40;nan
63347;BME280;49472;49.880;8.650;2023-02-04T12:35:35;102014.22;;;17.65;nan
63347;BME280;49472;49.880;8.650;2023-02-04T12:38:01;102009.63;;;18.05;nan
63347;BME280;49472;49.880;8.650;2023-02-04T12:40:26;102010.03;;;17.75;nan
63347;BME280;49472;49.880;8.650;2023-02-04T12:42:52;102017.09;;;17.36;nan
63347;BME280;49472;49.880;8.650;2023-02-04T12:45:17;102014.53;;;17.36;nan
63347;BME280;49472;49.880;8.650;2023-02-04T12:47:43;102010.19;;;18.09;nan
63347;BME280;49472;49.880;8.650;2023-02-04T12:50:11;102011.53;;;18.14;nan
63347;BME280;49472;49.880;8.650;2023-02-04T12:52:36;102017.75;;;18.47;nan
63347;BME280;49472;49.880;8.650;2023-02-04T12:55:04;102016.63;;;17.92;nan
63347;BME280;49472;49.880;8.650;2023-02-04T12:57:30;102022.75;;;17.54;nan
63347;BME280;49472;49.880;8.650;2023-02-04T12:59:56;102022.84;;;17.52;nan
63347;BME280;49472;49.880;8.650;2023-02-04T13:02:25;102018.91;;;17.23;nan
63347;BME280;49472;49.880;8.650;2023-02-04T13:04:51;102014.13;;;17.29;nan
63347;BME280;49472;49.880;8.650;2023-02-04T13:07:16;102020.22;;;17.28;nan
63347;BME280;49472;49.880;8.650;2023-02-04T13:09:42;102023.16;;;17.61;nan
63347;BME280;49472;49.880;8.650;2023-02-04T13:12:09;102025.38;;;17.65;nan
63347;BME280;49472;49.880;8.650;2023-02-04T13:14:34;102029.09;;;17.74;nan
63347;BME280;49472;49.880;8.650;2023-02-04T13:17:00;102021.53;;;18.19;nan
63347;BME280;49472;49.880;8.650;2023-02-04T13:19:25;102017.91;;;17.49;nan
63347;BME280;49472;49.880;8.650;2023-02-04T13:21:50;102025.59;;;17.62;nan
63347;BME280;49472;49.880;8.650;2023-02-04T13:24:15;102020.72;;;17.70;nan
63347;BME280;49472;49.880;8.650;2023-02-04T13:26:41;102026.44;;;17.63;nan
63347;BME280;49472;49.880;8.650;2023-02-04T13:29:07;102022.16;;;17.50;nan
63347;BME280;49472;49.880;8.650;2023-02-04T13:31:32;102017.50;;;16.80;nan